createdAt,value
2022-12-18T00:00:13.611Z,82.04
2022-12-18T00:02:22.919Z,81.57
2022-12-18T00:04:28.044Z,81.21
2022-12-18T00:06:33.568Z,81.32
2022-12-18T00:08:36.915Z,81.77
2022-12-18T00:10:41.631Z,81.66
2022-12-18T00:12:45.021Z,81.70
2022-12-18T00:14:48.473Z,81.54
2022-12-18T00:16:51.935Z,81.61
2022-12-18T00:18:59.724Z,81.68
2022-12-18T00:21:04.250Z,81.43
2022-12-18T00:23:08.342Z,81.34
2022-12-18T00:25:11.681Z,81.33
2022-12-18T00:27:16.316Z,81.51
2022-12-18T00:29:19.638Z,81.50
2022-12-18T00:31:25.631Z,81.47
2022-12-18T00:33:30.354Z,81.67
2022-12-18T00:35:33.805Z,81.47
2022-12-18T00:37:37.151Z,82.00
2022-12-18T00:39:41.578Z,81.37
2022-12-18T00:42:02.482Z,81.70
2022-12-18T00:44:08.775Z,81.64
2022-12-18T00:46:12.462Z,81.49
2022-12-18T00:48:15.879Z,81.53
2022-12-18T00:50:19.698Z,81.46
2022-12-18T00:52:23.015Z,81.32
2022-12-18T00:54:26.408Z,80.99
2022-12-18T00:56:31.695Z,81.08
2022-12-18T00:58:37.847Z,80.87
2022-12-18T01:00:43.239Z,80.82
2022-12-18T01:02:48.262Z,81.22
2022-12-18T01:04:51.722Z,80.77
2022-12-18T01:06:56.880Z,80.79
2022-12-18T01:09:00.247Z,80.67
2022-12-18T01:11:08.846Z,80.69
2022-12-18T01:13:12.305Z,80.83
2022-12-18T01:15:17.795Z,80.76
2022-12-18T01:17:23.558Z,80.75
2022-12-18T01:19:27.055Z,80.31
2022-12-18T01:21:31.671Z,80.42
2022-12-18T01:23:40.902Z,80.97
2022-12-18T01:25:44.635Z,80.66
2022-12-18T01:27:47.971Z,80.86
2022-12-18T01:29:51.864Z,80.59
2022-12-18T01:31:57.685Z,80.42
2022-12-18T01:34:04.135Z,80.20
2022-12-18T01:36:07.874Z,80.30
2022-12-18T01:38:11.758Z,80.33
2022-12-18T01:40:15.115Z,80.45
2022-12-18T01:42:18.632Z,80.30
2022-12-18T01:44:58.892Z,80.52
2022-12-18T01:47:02.457Z,79.79
2022-12-18T01:49:07.180Z,80.20
2022-12-18T01:51:13.378Z,79.79
2022-12-18T01:53:20.863Z,79.86
2022-12-18T01:55:26.883Z,79.83
2022-12-18T01:57:31.342Z,80.18
2022-12-18T01:59:37.226Z,80.03
2022-12-18T02:01:40.741Z,80.02
2022-12-18T02:03:45.775Z,80.26
2022-12-18T02:06:00.510Z,80.06
2022-12-18T02:08:12.478Z,80.20
2022-12-18T02:10:20.995Z,79.89
2022-12-18T02:12:27.428Z,80.35
2022-12-18T02:14:39.011Z,80.41
2022-12-18T02:16:50.856Z,80.55
2022-12-18T02:19:00.084Z,80.76
2022-12-18T02:21:14.554Z,80.46
2022-12-18T02:23:35.654Z,80.68
2022-12-18T02:26:08.702Z,80.42
2022-12-18T02:28:17.570Z,81.02
2022-12-18T02:30:22.656Z,80.48
2022-12-18T02:32:30.380Z,81.04
2022-12-18T02:34:39.305Z,80.69
2022-12-18T02:36:48.086Z,80.69
2022-12-18T02:38:54.274Z,80.60
2022-12-18T02:40:59.645Z,80.66
2022-12-18T02:43:10.297Z,80.40
2022-12-18T02:45:16.115Z,80.45
2022-12-18T02:47:24.098Z,80.26
2022-12-18T02:49:37.024Z,80.17
2022-12-18T02:51:49.915Z,80.11
2022-12-18T02:53:58.353Z,80.26
2022-12-18T02:56:07.985Z,80.91
2022-12-18T02:58:19.491Z,80.18
2022-12-18T03:00:35.776Z,80.20
2022-12-18T03:02:47.251Z,80.50
2022-12-18T03:05:00.519Z,80.55
2022-12-18T03:07:07.759Z,80.56
2022-12-18T03:09:15.993Z,80.79
2022-12-18T03:11:39.761Z,80.76
2022-12-18T03:13:47.833Z,80.49
2022-12-18T03:15:57.558Z,80.74
2022-12-18T03:18:04.871Z,81.17
2022-12-18T03:20:14.269Z,80.93
2022-12-18T03:22:18.284Z,80.75
2022-12-18T03:24:29.458Z,81.07
2022-12-18T03:26:34.547Z,80.98
2022-12-18T03:28:44.111Z,80.56
2022-12-18T03:30:51.317Z,80.70
2022-12-18T03:33:02.822Z,81.23
2022-12-18T03:35:09.174Z,80.86
2022-12-18T03:37:14.605Z,81.15
2022-12-18T03:39:18.594Z,80.91
2022-12-18T03:41:34.352Z,81.18
2022-12-18T03:44:02.265Z,81.00
2022-12-18T03:46:10.198Z,81.45
2022-12-18T03:48:21.110Z,81.07
2022-12-18T03:50:35.632Z,81.27
2022-12-18T03:52:44.637Z,81.25
2022-12-18T03:54:49.450Z,80.85
2022-12-18T03:57:00.504Z,80.64
2022-12-18T03:59:07.896Z,80.79
2022-12-18T04:01:15.437Z,80.65
2022-12-18T04:03:26.183Z,81.42
2022-12-18T04:05:32.491Z,81.31
2022-12-18T04:07:36.870Z,81.32
2022-12-18T04:09:43.255Z,81.28
2022-12-18T04:11:48.428Z,81.07
2022-12-18T04:13:57.762Z,81.10
2022-12-18T04:16:01.344Z,80.90
2022-12-18T04:18:05.649Z,80.94
2022-12-18T04:20:19.047Z,81.07
2022-12-18T04:22:23.365Z,80.89
2022-12-18T04:24:31.988Z,80.90
2022-12-18T04:26:48.398Z,81.20
2022-12-18T04:28:55.015Z,81.34
2022-12-18T04:30:58.498Z,81.40
2022-12-18T04:33:01.917Z,81.36
2022-12-18T04:35:11.475Z,81.10
2022-12-18T04:37:19.184Z,81.05
2022-12-18T04:39:24.714Z,80.98
2022-12-18T04:41:31.190Z,81.08
2022-12-18T04:43:35.331Z,80.88
2022-12-18T04:45:38.652Z,80.41
2022-12-18T04:47:42.169Z,80.22
2022-12-18T04:49:47.474Z,80.63
2022-12-18T04:51:51.023Z,80.32
2022-12-18T04:53:55.832Z,80.42
2022-12-18T04:56:10.428Z,80.77
2022-12-18T04:58:13.784Z,80.91
2022-12-18T05:00:17.641Z,80.97
2022-12-18T05:02:21.055Z,81.01
2022-12-18T05:04:24.550Z,81.51
2022-12-18T05:06:27.850Z,81.11
2022-12-18T05:08:31.535Z,81.90
2022-12-18T05:10:38.307Z,82.51
2022-12-18T05:12:55.835Z,82.41
2022-12-18T05:14:59.238Z,82.31
2022-12-18T05:17:02.571Z,82.79
2022-12-18T05:19:05.947Z,82.72
2022-12-18T05:21:09.595Z,83.02
2022-12-18T05:23:13.017Z,82.52
2022-12-18T05:25:16.990Z,82.49
2022-12-18T05:27:21.705Z,82.56
2022-12-18T05:29:25.188Z,82.55
2022-12-18T05:31:28.769Z,82.16
2022-12-18T05:33:34.192Z,82.48
2022-12-18T05:35:38.281Z,82.18
2022-12-18T05:37:43.504Z,82.23
2022-12-18T05:39:47.018Z,82.59
2022-12-18T05:41:50.321Z,82.27
2022-12-18T05:43:54.976Z,82.22
2022-12-18T05:45:58.799Z,82.43
2022-12-18T05:48:02.176Z,82.20
2022-12-18T05:50:06.500Z,82.53
2022-12-18T05:52:09.931Z,82.16
2022-12-18T05:54:13.372Z,82.77
2022-12-18T05:56:18.941Z,82.61
2022-12-18T05:58:22.288Z,82.49
2022-12-18T06:00:27.013Z,82.67
2022-12-18T06:02:30.390Z,82.49
2022-12-18T06:04:33.843Z,82.56
2022-12-18T06:06:37.704Z,82.40
2022-12-18T06:08:46.021Z,81.83
2022-12-18T06:10:53.220Z,82.22
2022-12-18T06:12:56.585Z,82.23
2022-12-18T06:14:59.885Z,82.40
2022-12-18T06:17:04.643Z,82.04
2022-12-18T06:19:08.067Z,82.47
2022-12-18T06:21:11.517Z,82.39
2022-12-18T06:23:14.849Z,82.54
2022-12-18T06:25:18.446Z,82.53
2022-12-18T06:27:22.123Z,82.27
2022-12-18T06:29:25.492Z,82.03
2022-12-18T06:31:28.891Z,82.32
2022-12-18T06:33:34.424Z,82.13
2022-12-18T06:35:37.887Z,82.69
2022-12-18T06:37:41.295Z,82.66
2022-12-18T06:39:44.625Z,82.56
2022-12-18T06:41:47.965Z,82.79
2022-12-18T06:43:55.611Z,82.66
2022-12-18T06:46:01.933Z,82.33
2022-12-18T06:48:08.489Z,82.24
2022-12-18T06:50:13.741Z,82.14
2022-12-18T06:52:19.926Z,81.77
2022-12-18T06:54:23.452Z,82.20
2022-12-18T06:56:27.324Z,82.25
2022-12-18T06:58:30.682Z,82.28
2022-12-18T07:00:34.024Z,82.31
2022-12-18T07:02:37.702Z,82.25
2022-12-18T07:04:41.093Z,82.28
2022-12-18T07:06:45.801Z,82.33
2022-12-18T07:08:50.518Z,82.43
2022-12-18T07:10:56.406Z,82.49
2022-12-18T07:12:59.926Z,82.69
2022-12-18T07:15:03.317Z,83.04
2022-12-18T07:17:06.804Z,82.78
2022-12-18T07:19:10.447Z,82.78
2022-12-18T07:21:17.829Z,82.64
2022-12-18T07:23:22.484Z,82.62
2022-12-18T07:25:25.864Z,82.61
2022-12-18T07:27:29.159Z,82.55
2022-12-18T07:29:32.744Z,82.78
2022-12-18T07:31:36.774Z,82.85
2022-12-18T07:33:40.794Z,82.78
2022-12-18T07:35:44.557Z,82.61
2022-12-18T07:37:48.157Z,82.47
2022-12-18T07:39:52.804Z,82.53
2022-12-18T07:42:10.078Z,82.42
2022-12-18T07:44:16.778Z,82.12
2022-12-18T07:46:20.284Z,81.99
2022-12-18T07:48:23.700Z,82.38
2022-12-18T07:50:26.973Z,82.45
2022-12-18T07:52:30.299Z,82.47
2022-12-18T07:54:34.343Z,82.57
2022-12-18T07:56:39.089Z,82.13
2022-12-18T07:58:42.556Z,82.40
2022-12-18T08:00:45.826Z,82.41
2022-12-18T08:02:49.211Z,82.15
2022-12-18T08:04:52.611Z,82.21
2022-12-18T08:06:56.015Z,82.18
2022-12-18T08:08:59.434Z,82.36
2022-12-18T08:11:03.667Z,82.24
2022-12-18T08:13:08.405Z,82.23
2022-12-18T08:15:12.136Z,82.06
2022-12-18T08:17:15.497Z,81.72
2022-12-18T08:19:18.804Z,82.01
2022-12-18T08:21:24.263Z,82.04
2022-12-18T08:23:28.851Z,82.10
2022-12-18T08:25:32.280Z,81.93
2022-12-18T08:27:35.894Z,81.92
2022-12-18T08:29:40.560Z,81.83
2022-12-18T08:31:43.992Z,81.89
2022-12-18T08:33:49.813Z,81.86
2022-12-18T08:35:53.081Z,81.83
2022-12-18T08:37:56.408Z,82.00
2022-12-18T08:39:59.698Z,81.54
2022-12-18T08:42:20.574Z,81.53
2022-12-18T08:44:42.185Z,81.25
2022-12-18T08:46:46.841Z,81.49
2022-12-18T08:48:52.041Z,81.34
2022-12-18T08:50:56.659Z,81.51
2022-12-18T08:53:00.000Z,80.91
2022-12-18T08:55:03.295Z,81.02
2022-12-18T08:57:06.603Z,80.58
2022-12-18T08:59:15.962Z,81.15
2022-12-18T09:01:23.534Z,80.52
2022-12-18T09:03:28.325Z,80.40
2022-12-18T09:05:32.588Z,79.57
2022-12-18T09:07:35.967Z,79.78
2022-12-18T09:09:39.429Z,79.32
2022-12-18T09:11:42.738Z,78.88
2022-12-18T09:13:46.036Z,79.34
2022-12-18T09:15:51.448Z,79.26
2022-12-18T09:17:54.877Z,78.76
2022-12-18T09:19:59.624Z,79.37
2022-12-18T09:22:03.225Z,79.32
2022-12-18T09:24:09.159Z,79.21
2022-12-18T09:26:12.702Z,78.86
2022-12-18T09:28:18.235Z,79.15
2022-12-18T09:30:21.588Z,79.07
2022-12-18T09:32:24.883Z,78.74
2022-12-18T09:34:28.319Z,78.44
2022-12-18T09:36:32.971Z,78.20
2022-12-18T09:38:37.177Z,77.19
2022-12-18T09:40:44.800Z,77.84
2022-12-18T09:42:55.908Z,77.11
2022-12-18T09:45:01.383Z,77.00
2022-12-18T09:47:14.590Z,77.12
2022-12-18T09:49:20.672Z,76.46
2022-12-18T09:51:30.656Z,76.61
2022-12-18T09:53:40.042Z,75.94
2022-12-18T09:55:46.899Z,76.20
2022-12-18T09:57:55.417Z,76.25
2022-12-18T10:00:04.018Z,76.11
2022-12-18T10:02:22.276Z,75.82
2022-12-18T10:04:26.315Z,75.72
2022-12-18T10:06:37.613Z,75.65
2022-12-18T10:08:51.173Z,75.47
2022-12-18T10:10:59.154Z,75.13
2022-12-18T10:13:15.271Z,75.18
2022-12-18T10:15:26.417Z,75.11
2022-12-18T10:17:40.587Z,74.43
2022-12-18T10:19:50.359Z,74.67
2022-12-18T10:22:04.976Z,74.10
2022-12-18T10:24:22.433Z,73.46
2022-12-18T10:26:26.964Z,73.79
2022-12-18T10:28:32.185Z,73.52
2022-12-18T10:30:35.567Z,72.89
2022-12-18T10:32:38.880Z,72.74
2022-12-18T10:34:42.817Z,71.39
2022-12-18T10:36:46.258Z,71.37
2022-12-18T10:38:49.624Z,71.41
2022-12-18T10:40:56.876Z,70.93
2022-12-18T10:43:06.757Z,70.97
2022-12-18T10:45:13.653Z,70.36
2022-12-18T10:47:20.901Z,71.17
2022-12-18T10:49:27.463Z,71.38
2022-12-18T10:51:34.490Z,71.30
2022-12-18T10:53:39.379Z,71.08
2022-12-18T10:55:47.898Z,70.06
2022-12-18T10:57:53.094Z,69.52
2022-12-18T10:59:58.527Z,70.00
2022-12-18T11:02:02.711Z,70.34
2022-12-18T11:04:11.311Z,69.99
2022-12-18T11:06:16.879Z,70.18
2022-12-18T11:08:24.257Z,69.97
2022-12-18T11:10:32.517Z,69.70
2022-12-18T11:12:35.832Z,69.21
2022-12-18T11:14:48.285Z,69.61
2022-12-18T11:19:28.430Z,69.87
2022-12-18T11:21:31.930Z,69.49
2022-12-18T11:23:36.202Z,68.93
2022-12-18T11:25:40.215Z,68.27
2022-12-18T11:27:50.586Z,68.32
2022-12-18T11:30:08.759Z,69.12
2022-12-18T11:32:29.279Z,68.70
2022-12-18T11:34:34.080Z,68.43
2022-12-18T11:36:43.098Z,69.03
2022-12-18T11:38:49.776Z,69.00
2022-12-18T11:40:58.874Z,68.66
2022-12-18T11:43:09.508Z,68.42
2022-12-18T11:45:28.558Z,69.14
2022-12-18T11:47:41.272Z,69.28
2022-12-18T11:49:49.045Z,69.07
2022-12-18T11:51:57.719Z,68.66
2022-12-18T11:54:02.314Z,69.20
2022-12-18T11:56:22.071Z,68.71
2022-12-18T11:58:46.817Z,68.72
2022-12-18T12:00:59.859Z,69.54
2022-12-18T12:03:38.968Z,69.27
2022-12-18T12:05:53.814Z,70.82
2022-12-18T12:08:04.522Z,69.94
2022-12-18T12:10:19.522Z,69.63
2022-12-18T12:12:48.618Z,69.86
2022-12-18T12:15:01.880Z,70.02
2022-12-18T12:17:18.181Z,69.61
2022-12-18T12:19:34.482Z,70.52
2022-12-18T12:21:42.065Z,70.28
2022-12-18T12:23:55.952Z,70.47
2022-12-18T12:26:04.173Z,70.44
2022-12-18T12:28:20.155Z,71.31
2022-12-18T12:30:32.693Z,70.01
2022-12-18T12:32:47.771Z,70.37
2022-12-18T12:35:09.633Z,71.02
2022-12-18T12:37:24.801Z,70.92
2022-12-18T12:39:33.300Z,71.08
2022-12-18T12:41:56.490Z,71.00
2022-12-18T12:44:03.820Z,70.96
2022-12-18T12:46:09.042Z,71.27
2022-12-18T12:48:19.072Z,70.83
2022-12-18T12:50:24.566Z,70.49
2022-12-18T12:52:35.504Z,72.03
2022-12-18T12:54:39.121Z,71.13
2022-12-18T12:56:47.950Z,71.56
2022-12-18T12:59:00.459Z,71.01
2022-12-18T13:01:17.263Z,70.75
2022-12-18T13:03:38.500Z,71.49
2022-12-18T13:05:50.392Z,71.35
2022-12-18T13:07:58.515Z,71.09
2022-12-18T13:10:36.832Z,71.38
2022-12-18T13:12:58.598Z,71.23
2022-12-18T13:15:21.839Z,70.60
2022-12-18T13:17:31.854Z,70.76
2022-12-18T13:19:37.338Z,71.37
2022-12-18T13:21:40.783Z,70.95
2022-12-18T13:23:45.037Z,72.00
2022-12-18T13:25:48.804Z,71.16
2022-12-18T13:28:03.602Z,70.34
2022-12-18T13:30:51.742Z,70.84
2022-12-18T13:34:02.127Z,71.72
2022-12-18T13:36:16.218Z,71.25
2022-12-18T13:38:24.572Z,70.99
2022-12-18T13:40:57.170Z,71.42
2022-12-18T13:43:15.654Z,71.39
2022-12-18T13:45:46.890Z,70.75
2022-12-18T13:47:51.981Z,71.60
2022-12-18T13:49:56.793Z,70.78
2022-12-18T13:52:02.189Z,71.40
2022-12-18T13:54:18.605Z,71.45
2022-12-18T13:56:25.774Z,71.82
2022-12-18T13:58:30.490Z,71.51
2022-12-18T14:00:33.807Z,71.39
2022-12-18T14:02:37.181Z,70.75
2022-12-18T14:04:41.066Z,70.36
2022-12-18T14:06:47.421Z,71.41
2022-12-18T14:08:53.321Z,71.19
2022-12-18T14:10:57.464Z,71.08
2022-12-18T14:13:07.821Z,70.72
2022-12-18T14:15:25.252Z,71.56
2022-12-18T14:17:28.797Z,72.03
2022-12-18T14:19:33.895Z,71.49
2022-12-18T14:21:39.712Z,71.88
2022-12-18T14:23:44.570Z,71.84
2022-12-18T14:25:49.522Z,71.78
2022-12-18T14:27:55.401Z,71.59
2022-12-18T14:29:59.161Z,71.54
2022-12-18T14:32:18.894Z,72.35
2022-12-18T14:34:28.317Z,71.77
2022-12-18T14:36:31.839Z,71.77
2022-12-18T14:38:36.303Z,71.61
2022-12-18T14:40:39.669Z,71.63
2022-12-18T14:42:45.474Z,72.56
2022-12-18T14:45:12.912Z,70.97
2022-12-18T14:47:16.314Z,72.11
2022-12-18T14:49:25.197Z,71.30
2022-12-18T14:51:32.034Z,71.64
2022-12-18T14:53:41.465Z,71.16
2022-12-18T14:55:48.778Z,72.42
2022-12-18T14:57:56.032Z,71.92
2022-12-18T15:00:07.135Z,71.68
2022-12-18T15:02:20.932Z,72.25
2022-12-18T15:04:28.389Z,71.13
2022-12-18T15:06:34.645Z,71.49
2022-12-18T15:08:39.058Z,71.57
2022-12-18T15:10:49.742Z,72.44
2022-12-18T15:13:10.043Z,71.13
2022-12-18T15:15:47.963Z,71.42
2022-12-18T15:17:51.384Z,71.46
2022-12-18T15:20:02.157Z,71.24
2022-12-18T15:22:06.732Z,71.87
2022-12-18T15:24:19.978Z,72.00
2022-12-18T15:26:24.171Z,71.72
2022-12-18T15:28:33.437Z,71.16
2022-12-18T15:30:37.565Z,72.11
2022-12-18T15:32:44.757Z,72.23
2022-12-18T15:34:48.043Z,72.11
2022-12-18T15:36:52.458Z,71.48
2022-12-18T15:39:01.328Z,72.38
2022-12-18T15:41:14.459Z,72.24
2022-12-18T15:43:35.618Z,72.63
2022-12-18T15:45:40.527Z,72.37
2022-12-18T15:47:44.365Z,72.91
2022-12-18T15:49:50.751Z,72.58
2022-12-18T15:51:55.855Z,72.95
2022-12-18T15:54:01.748Z,73.02
2022-12-18T15:56:24.767Z,73.12
2022-12-18T15:58:28.072Z,72.62
2022-12-18T16:00:31.920Z,73.46
2022-12-18T16:02:36.896Z,72.81
2022-12-18T16:04:40.372Z,74.11
2022-12-18T16:07:58.422Z,73.78
2022-12-18T16:10:02.952Z,74.19
2022-12-18T16:12:07.301Z,74.72
2022-12-18T16:15:24.094Z,74.84
2022-12-18T16:25:18.208Z,74.77
2022-12-18T16:27:37.568Z,75.83
2022-12-18T16:39:46.534Z,76.07
2022-12-18T16:41:50.376Z,76.74
2022-12-18T16:43:55.390Z,76.89
2022-12-18T17:16:03.680Z,76.62
2022-12-18T17:18:07.085Z,77.01
2022-12-18T17:20:11.232Z,77.45
2022-12-18T17:22:14.529Z,77.16
2022-12-18T17:24:18.423Z,77.84
2022-12-18T17:26:22.873Z,77.14
2022-12-18T17:28:26.662Z,77.26
2022-12-18T17:30:31.084Z,77.42
2022-12-18T17:32:35.882Z,77.85
2022-12-18T17:34:39.305Z,78.10
2022-12-18T17:36:42.667Z,77.53
2022-12-18T17:38:51.624Z,78.10
2022-12-18T17:40:56.240Z,77.57
2022-12-18T17:42:59.926Z,78.11
2022-12-18T17:45:03.231Z,78.08
2022-12-18T17:47:06.710Z,77.37
2022-12-18T17:49:12.491Z,78.53
2022-12-18T17:51:17.568Z,78.05
2022-12-18T17:53:20.893Z,78.54
2022-12-18T17:55:24.418Z,78.59
2022-12-18T18:01:49.393Z,77.97
2022-12-18T18:03:54.066Z,78.46
2022-12-18T18:06:00.334Z,78.77
2022-12-18T18:08:03.745Z,77.98
2022-12-18T18:10:09.115Z,78.41
2022-12-18T18:12:30.713Z,78.88
2022-12-18T18:14:34.126Z,78.91
2022-12-18T18:16:40.780Z,79.01
2022-12-18T18:18:44.196Z,78.68
2022-12-18T18:20:47.489Z,79.13
2022-12-18T18:22:52.147Z,78.60
2022-12-18T18:24:55.509Z,78.59
2022-12-18T18:26:59.956Z,78.21
2022-12-18T18:29:05.214Z,78.84
2022-12-18T18:31:10.549Z,78.65
2022-12-18T18:33:14.130Z,78.41
2022-12-18T18:35:45.022Z,78.12
2022-12-18T18:37:41.089Z,78.96
2022-12-18T18:39:46.901Z,78.61
2022-12-18T18:41:50.288Z,78.18
2022-12-18T18:43:56.562Z,79.05
2022-12-18T18:46:01.137Z,78.70
2022-12-18T18:48:05.563Z,78.85
2022-12-18T18:50:09.513Z,78.94
2022-12-18T18:52:12.892Z,78.45
2022-12-18T18:54:16.221Z,79.27
2022-12-18T18:58:45.868Z,78.78
2022-12-18T19:00:56.252Z,78.65
2022-12-18T19:03:00.970Z,78.79
2022-12-18T19:05:04.798Z,78.80
2022-12-18T19:07:08.668Z,78.47
2022-12-18T19:09:12.471Z,78.17
2022-12-18T19:11:36.558Z,78.05
2022-12-18T19:13:41.854Z,77.71
2022-12-18T19:15:45.918Z,78.37
2022-12-18T19:17:49.503Z,78.59
2022-12-18T19:19:53.140Z,78.90
2022-12-18T19:21:56.458Z,79.17
2022-12-18T19:24:00.226Z,78.53
2022-12-18T19:26:26.960Z,78.64
2022-12-18T19:28:28.748Z,78.08
2022-12-18T19:30:33.556Z,77.56
2022-12-18T19:32:36.926Z,78.40
2022-12-18T19:34:40.420Z,78.25
2022-12-18T19:36:44.130Z,78.51
2022-12-18T19:38:48.432Z,77.85
2022-12-18T19:40:52.875Z,77.78
2022-12-18T19:42:56.497Z,77.98
2022-12-18T19:44:59.973Z,77.95
2022-12-18T19:47:04.870Z,77.92
2022-12-18T19:49:08.364Z,78.38
2022-12-18T19:51:15.275Z,77.53
2022-12-18T19:53:18.757Z,77.82
2022-12-18T19:55:22.301Z,78.26
2022-12-18T19:57:25.778Z,77.92
2022-12-18T19:59:29.274Z,78.32
2022-12-18T20:01:33.689Z,77.72
2022-12-18T20:03:38.872Z,77.79
2022-12-18T20:05:42.603Z,78.03
2022-12-18T20:07:46.088Z,78.16
2022-12-18T20:09:51.666Z,77.95
2022-12-18T20:12:00.512Z,77.93
2022-12-18T20:14:04.976Z,77.39
2022-12-18T20:16:08.945Z,77.61
2022-12-18T20:18:12.388Z,78.08
2022-12-18T20:20:17.256Z,77.71
2022-12-18T20:22:21.853Z,77.35
2022-12-18T20:24:25.250Z,78.00
2022-12-18T20:26:28.905Z,77.51
2022-12-18T20:28:32.272Z,78.06
2022-12-18T20:30:35.697Z,77.82
2022-12-18T20:32:39.056Z,78.15
2022-12-18T20:34:42.922Z,77.55
2022-12-18T20:36:47.734Z,77.43
2022-12-18T20:38:52.886Z,77.77
2022-12-18T20:41:02.269Z,77.59
2022-12-18T20:43:07.004Z,78.54
2022-12-18T20:45:10.926Z,77.25
2022-12-18T20:47:14.289Z,78.42
2022-12-18T20:49:18.026Z,78.10
2022-12-18T20:51:22.694Z,77.85
2022-12-18T20:53:27.437Z,77.81
2022-12-18T20:55:30.731Z,77.97
2022-12-18T20:57:34.470Z,77.72
2022-12-18T20:59:44.786Z,77.30
2022-12-18T21:01:53.951Z,78.11
2022-12-18T21:03:57.303Z,77.98
2022-12-18T21:06:00.803Z,78.61
2022-12-18T21:08:04.181Z,78.23
2022-12-18T21:10:10.040Z,77.79
2022-12-18T21:12:35.103Z,78.19
2022-12-18T21:14:46.246Z,78.59
2022-12-18T21:16:55.206Z,78.05
2022-12-18T21:18:59.036Z,77.69
2022-12-18T21:21:02.579Z,78.43
2022-12-18T21:23:15.978Z,78.03
2022-12-18T21:25:21.456Z,78.75
2022-12-18T21:27:24.844Z,77.96
2022-12-18T21:29:28.217Z,77.74
2022-12-18T21:31:34.337Z,78.55
2022-12-18T21:33:37.720Z,78.50
2022-12-18T21:35:41.006Z,78.05
2022-12-18T21:37:44.317Z,78.61
2022-12-18T21:39:48.100Z,78.59
2022-12-18T21:42:10.611Z,78.98
2022-12-18T21:44:16.411Z,79.55
2022-12-18T21:46:19.848Z,79.17
2022-12-18T21:48:23.360Z,79.44
2022-12-18T21:50:26.699Z,80.78
2022-12-18T21:52:32.217Z,81.20
2022-12-18T21:54:36.257Z,81.13
2022-12-18T21:56:48.307Z,81.88
2022-12-18T21:58:56.957Z,82.47
2022-12-18T22:01:01.032Z,82.78
2022-12-18T22:03:18.763Z,82.80
2022-12-18T22:05:23.249Z,83.39
2022-12-18T22:07:26.599Z,83.57
2022-12-18T22:09:29.911Z,84.33
2022-12-18T22:11:33.483Z,84.75
2022-12-18T22:13:36.742Z,85.27
2022-12-18T22:15:41.505Z,86.08
2022-12-18T22:17:45.056Z,85.40
2022-12-18T22:19:48.474Z,85.91
2022-12-18T22:21:52.373Z,86.45
2022-12-18T22:23:57.101Z,87.02
2022-12-18T22:26:10.712Z,88.15
2022-12-18T22:28:31.772Z,88.00
2022-12-18T22:30:35.280Z,88.38
2022-12-18T22:32:40.310Z,88.69
2022-12-18T22:34:43.709Z,88.71
2022-12-18T22:36:49.084Z,88.64
2022-12-18T22:38:52.337Z,88.28
2022-12-18T22:40:57.185Z,88.28
2022-12-18T22:43:00.509Z,89.32
2022-12-18T22:45:03.793Z,89.44
2022-12-18T22:47:07.538Z,89.16
2022-12-18T22:49:14.095Z,89.54
2022-12-18T22:51:20.159Z,89.36
2022-12-18T22:53:23.553Z,89.28
2022-12-18T22:55:26.841Z,89.78
2022-12-18T22:57:30.112Z,89.70
2022-12-18T22:59:33.407Z,89.65
2022-12-18T23:01:36.996Z,90.40
2022-12-18T23:03:42.464Z,89.57
2022-12-18T23:05:47.742Z,90.34
2022-12-18T23:07:51.038Z,90.89
2022-12-18T23:10:00.729Z,89.96
2022-12-18T23:12:05.443Z,90.96
2022-12-18T23:14:08.729Z,90.63
2022-12-18T23:16:15.707Z,91.09
2022-12-18T23:18:19.241Z,90.85
2022-12-18T23:20:22.504Z,91.76
2022-12-18T23:22:27.541Z,91.87
2022-12-18T23:24:31.021Z,91.18
2022-12-18T23:26:38.198Z,91.47
2022-12-18T23:28:41.980Z,91.71
2022-12-18T23:30:45.380Z,91.48
2022-12-18T23:32:48.709Z,92.14
2022-12-18T23:34:51.988Z,91.98
2022-12-18T23:36:56.207Z,92.27
2022-12-18T23:39:02.100Z,91.86
2022-12-18T23:41:10.325Z,92.10
2022-12-18T23:43:13.667Z,91.83
2022-12-18T23:45:18.148Z,92.64
2022-12-18T23:47:21.918Z,92.46
2022-12-18T23:49:25.208Z,92.69
2022-12-18T23:51:29.935Z,91.97
2022-12-18T23:53:33.260Z,92.67
2022-12-18T23:55:41.562Z,92.85
2022-12-18T23:57:44.896Z,91.89
2022-12-18T23:59:48.160Z,92.60
